Time;durP1;ratioP1;P1;durP2;ratioP2;P2;SDS_P1;SDS_P2;PMS_P1;PMS_P2;Temp;Humidity;BMP_temperature;BMP_pressure;BME280_temperature;BME280_humidity;BME280_pressure;Samples;Min_cycle;Max_cycle;Signal;HPM_P1;HPM_P2
2022/03/16 00:00:09;;;;;;;54.53;33.78;;;;;;;;;;5096156;28;20055;-62
2022/03/16 00:02:35;;;;;;;56.10;32.63;;;;;;;;;;5096259;28;20040;-62
2022/03/16 00:05:01;;;;;;;66.72;37.28;;;;;;;;;;5077984;28;20137;-63
2022/03/16 00:07:27;;;;;;;66.28;38.85;;;;;;;;;;5077759;28;20036;-62
2022/03/16 00:09:54;;;;;;;70.68;37.50;;;;;;;;;;5095478;28;20036;-62
2022/03/16 00:12:20;;;;;;;67.32;37.63;;;;;;;;;;5096571;28;20054;-62
2022/03/16 00:14:46;;;;;;;71.97;37.00;;;;;;;;;;5095070;28;20036;-62
2022/03/16 00:17:13;;;;;;;63.40;34.83;;;;;;;;;;5093930;28;20066;-62
2022/03/16 00:19:40;;;;;;;62.67;36.90;;;;;;;;;;5097728;28;20048;-62
2022/03/16 00:22:07;;;;;;;67.07;37.15;;;;;;;;;;5094372;28;20047;-62
2022/03/16 00:24:33;;;;;;;62.65;35.22;;;;;;;;;;5094145;28;20051;-62
2022/03/16 00:26:59;;;;;;;62.53;35.58;;;;;;;;;;5076721;28;20047;-62
2022/03/16 00:29:26;;;;;;;68.03;34.55;;;;;;;;;;5073761;28;20063;-61
2022/03/16 00:31:52;;;;;;;59.60;32.13;;;;;;;;;;5075196;28;20044;-62
2022/03/16 00:34:19;;;;;;;55.90;33.92;;;;;;;;;;5077011;28;20051;-62
2022/03/16 00:36:45;;;;;;;51.35;31.15;;;;;;;;;;5093863;28;20048;-62
2022/03/16 00:39:12;;;;;;;54.75;30.23;;;;;;;;;;5068435;28;20059;-62
2022/03/16 00:41:38;;;;;;;136.88;31.42;;;;;;;;;;5067556;28;20475;-61
2022/03/16 00:44:05;;;;;;;374.48;36.13;;;;;;;;;;5087009;28;20084;-61
2022/03/16 00:46:31;;;;;;;60.10;22.25;;;;;;;;;;5084787;28;20047;-61
2022/03/16 00:48:57;;;;;;;131.07;26.05;;;;;;;;;;5094413;28;20504;-62
2022/03/16 00:51:24;;;;;;;232.77;33.08;;;;;;;;;;5095474;28;21854;-61
2022/03/16 00:53:50;;;;;;;576.58;40.00;;;;;;;;;;5074880;28;20047;-62
2022/03/16 00:56:16;;;;;;;394.83;33.55;;;;;;;;;;5075361;28;20109;-62
2022/03/16 00:58:42;;;;;;;512.58;35.08;;;;;;;;;;5094077;28;20127;-60
2022/03/16 01:01:09;;;;;;;552.70;33.85;;;;;;;;;;5099674;28;20100;-61
2022/03/16 01:03:35;;;;;;;621.30;31.17;;;;;;;;;;5102925;28;20110;-62
2022/03/16 01:06:02;;;;;;;577.72;31.85;;;;;;;;;;5093368;28;20036;-62
2022/03/16 01:08:29;;;;;;;494.42;26.33;;;;;;;;;;5080752;28;20519;-61
2022/03/16 01:10:55;;;;;;;446.85;23.55;;;;;;;;;;5093909;28;20036;-62
2022/03/16 01:13:22;;;;;;;325.92;19.75;;;;;;;;;;5074540;28;20115;-62
2022/03/16 01:15:48;;;;;;;317.77;20.65;;;;;;;;;;5094427;28;20497;-62
2022/03/16 01:18:15;;;;;;;552.50;27.55;;;;;;;;;;5077879;28;20450;-62
2022/03/16 01:20:42;;;;;;;382.08;20.50;;;;;;;;;;5094057;28;20089;-62
2022/03/16 01:23:08;;;;;;;67.78;17.58;;;;;;;;;;5084261;28;20386;-62
2022/03/16 01:25:34;;;;;;;36.97;14.88;;;;;;;;;;5093363;28;20104;-62
2022/03/16 01:28:00;;;;;;;32.60;18.02;;;;;;;;;;5074116;28;20043;-61
2022/03/16 01:30:26;;;;;;;46.08;22.38;;;;;;;;;;5076414;28;20064;-62
2022/03/16 01:32:53;;;;;;;30.17;17.73;;;;;;;;;;5075100;28;20475;-61
2022/03/16 01:35:19;;;;;;;26.50;16.75;;;;;;;;;;5092804;28;20048;-62
2022/03/16 01:37:45;;;;;;;35.80;20.55;;;;;;;;;;5072574;28;20044;-62
2022/03/16 01:40:12;;;;;;;38.70;22.98;;;;;;;;;;5093004;28;20052;-61
2022/03/16 01:42:38;;;;;;;41.25;23.50;;;;;;;;;;5092262;28;20085;-62
2022/03/16 01:45:04;;;;;;;43.65;25.83;;;;;;;;;;5093026;28;20067;-62
2022/03/16 01:47:30;;;;;;;51.42;28.65;;;;;;;;;;5072651;28;20395;-61
2022/03/16 01:49:57;;;;;;;57.17;31.95;;;;;;;;;;5060352;28;20047;-61
2022/03/16 01:52:24;;;;;;;67.15;37.45;;;;;;;;;;5086012;28;20040;-62
2022/03/16 01:54:50;;;;;;;64.43;36.28;;;;;;;;;;5087202;28;20059;-62
2022/03/16 01:57:17;;;;;;;68.07;36.08;;;;;;;;;;5095377;28;20043;-61
2022/03/16 01:59:43;;;;;;;68.90;38.45;;;;;;;;;;5093016;28;20040;-61
2022/03/16 02:02:10;;;;;;;68.10;37.17;;;;;;;;;;5092549;28;20044;-61
2022/03/16 02:04:37;;;;;;;68.68;37.40;;;;;;;;;;5074527;28;20046;-61
2022/03/16 02:07:04;;;;;;;69.30;37.20;;;;;;;;;;5074144;28;20043;-62
2022/03/16 02:09:30;;;;;;;64.93;35.65;;;;;;;;;;5100086;28;20072;-62
2022/03/16 02:11:56;;;;;;;61.00;35.75;;;;;;;;;;5096302;28;20224;-61
2022/03/16 02:14:23;;;;;;;68.45;39.08;;;;;;;;;;5099902;28;20051;-62
2022/03/16 02:16:49;;;;;;;63.22;35.33;;;;;;;;;;5093511;28;20058;-61
2022/03/16 02:19:16;;;;;;;70.20;36.45;;;;;;;;;;5092909;28;20044;-61
2022/03/16 02:21:45;;;;;;;70.90;37.80;;;;;;;;;;5087342;28;20064;-61
2022/03/16 02:24:11;;;;;;;88.53;38.88;;;;;;;;;;5092197;28;20048;-61
2022/03/16 02:26:37;;;;;;;75.32;40.67;;;;;;;;;;5073763;28;20048;-61
2022/03/16 02:29:03;;;;;;;73.15;38.85;;;;;;;;;;5073394;28;20067;-61
2022/03/16 02:31:30;;;;;;;69.82;38.05;;;;;;;;;;5091168;28;20044;-62
2022/03/16 02:33:57;;;;;;;70.50;37.35;;;;;;;;;;5084853;28;20249;-62
2022/03/16 02:36:23;;;;;;;71.93;36.78;;;;;;;;;;5097200;28;20044;-62
2022/03/16 02:38:49;;;;;;;75.55;39.40;;;;;;;;;;5077132;28;20459;-62
2022/03/16 02:41:16;;;;;;;69.82;37.30;;;;;;;;;;5091907;28;20129;-62
2022/03/16 02:43:42;;;;;;;66.90;34.83;;;;;;;;;;5093082;28;20032;-62
2022/03/16 02:46:08;;;;;;;69.18;37.95;;;;;;;;;;5071944;28;20044;-62
2022/03/16 02:48:34;;;;;;;74.35;38.08;;;;;;;;;;5099563;28;20463;-61
2022/03/16 02:51:00;;;;;;;69.38;37.15;;;;;;;;;;5091765;28;20127;-62
2022/03/16 02:53:27;;;;;;;74.10;38.45;;;;;;;;;;5098593;28;20078;-61
2022/03/16 02:55:53;;;;;;;78.97;40.25;;;;;;;;;;5066670;28;20060;-62
2022/03/16 02:58:19;;;;;;;75.85;39.67;;;;;;;;;;5070144;28;20487;-61
2022/03/16 03:00:45;;;;;;;78.93;38.50;;;;;;;;;;5069266;28;20052;-61
2022/03/16 03:03:12;;;;;;;72.35;38.88;;;;;;;;;;5071333;28;20098;-61
2022/03/16 03:05:38;;;;;;;75.68;37.72;;;;;;;;;;5068993;28;20123;-61
2022/03/16 03:08:04;;;;;;;66.53;36.25;;;;;;;;;;5070774;28;20059;-61
2022/03/16 03:10:31;;;;;;;78.10;38.40;;;;;;;;;;5071528;28;20098;-61
2022/03/16 03:12:57;;;;;;;75.18;39.58;;;;;;;;;;5071216;28;20183;-61
2022/03/16 03:15:23;;;;;;;70.65;39.50;;;;;;;;;;5072345;28;20048;-62
2022/03/16 03:17:49;;;;;;;70.95;37.70;;;;;;;;;;5070904;28;20105;-62
2022/03/16 03:20:15;;;;;;;70.43;36.88;;;;;;;;;;5070399;28;20449;-61
2022/03/16 03:22:42;;;;;;;72.80;38.83;;;;;;;;;;5070362;28;20134;-61
2022/03/16 03:25:10;;;;;;;73.35;38.90;;;;;;;;;;5070841;28;20421;-61
2022/03/16 03:27:36;;;;;;;74.38;38.30;;;;;;;;;;5069248;28;20048;-61
2022/03/16 03:30:03;;;;;;;72.90;38.78;;;;;;;;;;5069051;28;20048;-61
2022/03/16 03:32:29;;;;;;;77.88;38.80;;;;;;;;;;5070980;28;20036;-62
2022/03/16 03:34:55;;;;;;;70.63;38.58;;;;;;;;;;5070858;28;20036;-61
2022/03/16 03:37:25;;;;;;;67.47;38.47;;;;;;;;;;5070291;28;20039;-62
2022/03/16 03:39:51;;;;;;;69.68;37.83;;;;;;;;;;5070189;28;20066;-62
2022/03/16 03:42:17;;;;;;;73.93;35.92;;;;;;;;;;5070613;28;20143;-62
2022/03/16 03:44:44;;;;;;;70.85;37.58;;;;;;;;;;5069412;28;20040;-61
2022/03/16 03:47:10;;;;;;;75.03;38.47;;;;;;;;;;5069750;28;20056;-61
2022/03/16 03:49:37;;;;;;;74.50;38.60;;;;;;;;;;5070457;28;20458;-62
2022/03/16 03:52:04;;;;;;;72.38;37.90;;;;;;;;;;5067751;28;20041;-62
2022/03/16 03:54:30;;;;;;;73.90;38.17;;;;;;;;;;5076957;28;20040;-61
2022/03/16 03:56:56;;;;;;;68.85;36.60;;;;;;;;;;5089042;28;20127;-61
2022/03/16 03:59:23;;;;;;;76.32;36.97;;;;;;;;;;5086529;28;20097;-62
2022/03/16 04:01:50;;;;;;;77.30;39.53;;;;;;;;;;5086512;28;20047;-62
2022/03/16 04:04:16;;;;;;;87.03;41.70;;;;;;;;;;5072497;28;20094;-62
2022/03/16 04:06:42;;;;;;;77.05;39.25;;;;;;;;;;5093089;28;20048;-62
2022/03/16 04:09:08;;;;;;;80.18;38.50;;;;;;;;;;5090477;28;20429;-62
2022/03/16 04:11:35;;;;;;;86.10;41.67;;;;;;;;;;5071762;28;20604;-62
2022/03/16 04:14:01;;;;;;;81.53;41.10;;;;;;;;;;5091502;28;20157;-61
2022/03/16 04:16:27;;;;;;;73.88;38.28;;;;;;;;;;5095456;28;20444;-62
2022/03/16 04:18:54;;;;;;;73.25;38.92;;;;;;;;;;5095197;28;20119;-61
2022/03/16 04:21:21;;;;;;;67.30;36.08;;;;;;;;;;5099392;28;20358;-61
2022/03/16 04:23:47;;;;;;;73.65;36.22;;;;;;;;;;5102169;28;20039;-61
2022/03/16 04:26:13;;;;;;;67.85;35.65;;;;;;;;;;5072626;28;20036;-61
2022/03/16 04:28:40;;;;;;;64.22;34.17;;;;;;;;;;5093618;28;20044;-61
2022/03/16 04:31:06;;;;;;;71.38;37.65;;;;;;;;;;5093742;28;20145;-61
2022/03/16 04:33:32;;;;;;;70.90;36.40;;;;;;;;;;5076277;28;20044;-61
2022/03/16 04:35:58;;;;;;;72.18;38.58;;;;;;;;;;5094573;28;20399;-61
2022/03/16 04:38:25;;;;;;;75.15;38.53;;;;;;;;;;5093776;28;20028;-61
2022/03/16 04:40:51;;;;;;;75.82;35.20;;;;;;;;;;5097947;28;20085;-61
2022/03/16 04:43:17;;;;;;;66.85;33.92;;;;;;;;;;5094559;28;20105;-61
2022/03/16 04:45:43;;;;;;;70.55;36.00;;;;;;;;;;5093264;28;20044;-61
2022/03/16 04:48:11;;;;;;;70.82;36.13;;;;;;;;;;5075881;28;20044;-61
2022/03/16 04:50:39;;;;;;;72.40;37.75;;;;;;;;;;5093825;28;20055;-62
2022/03/16 04:53:05;;;;;;;65.68;36.60;;;;;;;;;;5095728;28;20036;-62
2022/03/16 04:55:32;;;;;;;72.50;37.88;;;;;;;;;;5094943;28;20150;-61
2022/03/16 04:58:00;;;;;;;74.75;41.22;;;;;;;;;;5099871;28;20032;-61
2022/03/16 05:00:26;;;;;;;78.10;39.47;;;;;;;;;;5074085;28;20043;-61
2022/03/16 05:02:52;;;;;;;83.80;40.03;;;;;;;;;;5094109;28;20101;-61
2022/03/16 05:05:18;;;;;;;80.43;40.00;;;;;;;;;;5074812;28;20040;-61
2022/03/16 05:07:45;;;;;;;83.15;41.72;;;;;;;;;;5089939;28;20032;-62
2022/03/16 05:10:11;;;;;;;84.75;43.08;;;;;;;;;;5096129;28;20153;-62
2022/03/16 05:12:38;;;;;;;79.65;42.72;;;;;;;;;;5094344;28;20044;-61
2022/03/16 05:15:06;;;;;;;85.47;44.28;;;;;;;;;;5093450;28;20122;-61
2022/03/16 05:17:32;;;;;;;89.57;44.80;;;;;;;;;;5092166;28;20043;-62
2022/03/16 05:19:58;;;;;;;91.38;45.45;;;;;;;;;;5093014;28;20116;-62
2022/03/16 05:22:24;;;;;;;90.05;43.67;;;;;;;;;;5092909;28;20055;-61
2022/03/16 05:24:50;;;;;;;76.75;42.47;;;;;;;;;;5075190;28;20047;-61
2022/03/16 05:27:19;;;;;;;89.88;42.85;;;;;;;;;;5091679;28;20442;-61
2022/03/16 05:29:45;;;;;;;85.57;43.50;;;;;;;;;;5095520;28;20039;-61
2022/03/16 05:32:11;;;;;;;90.00;45.28;;;;;;;;;;5092945;28;20143;-61
2022/03/16 05:34:38;;;;;;;92.22;43.83;;;;;;;;;;5072981;28;20048;-61
2022/03/16 05:37:05;;;;;;;82.35;44.60;;;;;;;;;;5092677;28;20047;-61
2022/03/16 05:39:31;;;;;;;91.40;45.05;;;;;;;;;;5093250;28;20417;-62
2022/03/16 05:41:57;;;;;;;86.10;43.50;;;;;;;;;;5091727;28;20113;-61
2022/03/16 05:44:23;;;;;;;85.88;44.28;;;;;;;;;;5092867;28;20410;-61
2022/03/16 05:46:50;;;;;;;85.38;42.95;;;;;;;;;;5092671;28;20044;-62
2022/03/16 05:49:16;;;;;;;83.22;45.17;;;;;;;;;;5081425;28;20113;-61
2022/03/16 05:51:42;;;;;;;80.82;44.22;;;;;;;;;;5091544;28;20035;-61
2022/03/16 05:54:08;;;;;;;88.93;45.08;;;;;;;;;;5091807;28;20398;-62
2022/03/16 05:56:35;;;;;;;74.13;40.50;;;;;;;;;;5087903;28;20507;-61
2022/03/16 05:59:01;;;;;;;84.15;44.10;;;;;;;;;;5093760;28;20075;-61
2022/03/16 06:01:27;;;;;;;85.18;44.08;;;;;;;;;;5088813;28;20044;-61
2022/03/16 06:03:54;;;;;;;84.90;41.03;;;;;;;;;;5090663;28;20399;-61
2022/03/16 06:06:20;;;;;;;78.03;44.05;;;;;;;;;;5092708;28;20114;-61
2022/03/16 06:08:47;;;;;;;71.28;42.10;;;;;;;;;;5077530;28;20116;-62
2022/03/16 06:11:13;;;;;;;78.60;43.35;;;;;;;;;;5092283;28;20084;-61
2022/03/16 06:13:39;;;;;;;68.85;41.03;;;;;;;;;;5092452;28;20028;-63
2022/03/16 06:16:05;;;;;;;82.55;42.45;;;;;;;;;;5092456;28;20039;-61
2022/03/16 06:18:32;;;;;;;71.07;41.30;;;;;;;;;;5093703;28;20100;-70
2022/03/16 06:20:58;;;;;;;78.18;41.55;;;;;;;;;;5093486;28;20389;-62
2022/03/16 06:23:24;;;;;;;77.47;42.28;;;;;;;;;;5093647;28;20088;-62
2022/03/16 06:25:50;;;;;;;78.07;41.67;;;;;;;;;;5092645;28;20135;-63
2022/03/16 06:28:16;;;;;;;71.93;39.67;;;;;;;;;;5092497;28;20051;-62
2022/03/16 06:30:42;;;;;;;76.38;40.83;;;;;;;;;;5073165;28;20044;-62
2022/03/16 06:33:09;;;;;;;69.18;39.53;;;;;;;;;;5111488;27;20047;-73
2022/03/16 06:35:35;;;;;;;71.10;39.30;;;;;;;;;;5077545;28;20102;-63
2022/03/16 06:38:01;;;;;;;73.05;39.95;;;;;;;;;;5094388;28;20032;-62
2022/03/16 06:40:27;;;;;;;71.22;40.55;;;;;;;;;;5094523;28;20100;-63
2022/03/16 06:42:55;;;;;;;79.68;41.20;;;;;;;;;;5090981;28;20048;-62
2022/03/16 06:45:21;;;;;;;69.25;40.60;;;;;;;;;;5090580;28;20483;-62
2022/03/16 06:47:48;;;;;;;72.32;40.47;;;;;;;;;;5092527;28;20043;-62
2022/03/16 06:50:14;;;;;;;74.32;41.83;;;;;;;;;;5073436;28;20043;-63
2022/03/16 06:52:40;;;;;;;76.45;43.30;;;;;;;;;;5094849;28;20035;-62
2022/03/16 06:55:07;;;;;;;72.82;41.60;;;;;;;;;;5091707;28;20064;-63
2022/03/16 06:57:33;;;;;;;77.10;42.40;;;;;;;;;;5091578;28;20048;-63
2022/03/16 07:00:00;;;;;;;72.22;39.88;;;;;;;;;;5072361;28;20044;-62
2022/03/16 07:02:26;;;;;;;75.82;40.63;;;;;;;;;;5091403;28;20502;-62
2022/03/16 07:04:53;;;;;;;77.80;44.15;;;;;;;;;;5086966;28;20036;-63
2022/03/16 07:07:19;;;;;;;74.80;41.38;;;;;;;;;;5070748;28;20047;-63
2022/03/16 07:09:45;;;;;;;72.15;42.03;;;;;;;;;;5073117;28;20123;-62
2022/03/16 07:12:11;;;;;;;74.47;43.38;;;;;;;;;;5090532;28;20036;-63
2022/03/16 07:14:37;;;;;;;69.82;42.05;;;;;;;;;;5086869;28;20046;-63
2022/03/16 07:17:04;;;;;;;72.13;44.15;;;;;;;;;;5071058;28;20130;-63
2022/03/16 07:19:30;;;;;;;77.97;45.22;;;;;;;;;;5089412;28;20097;-62
2022/03/16 07:21:58;;;;;;;70.95;45.00;;;;;;;;;;5070291;28;20451;-63
2022/03/16 07:24:26;;;;;;;66.57;44.33;;;;;;;;;;5067766;28;20047;-63
2022/03/16 07:26:55;;;;;;;74.63;45.10;;;;;;;;;;5066966;28;20075;-63
2022/03/16 07:29:21;;;;;;;76.75;47.60;;;;;;;;;;5083577;28;20052;-62
2022/03/16 07:31:48;;;;;;;74.25;46.63;;;;;;;;;;5088692;28;20159;-62
2022/03/16 07:34:14;;;;;;;73.45;47.17;;;;;;;;;;5060352;28;20043;-63
2022/03/16 07:36:41;;;;;;;76.80;44.70;;;;;;;;;;5077101;28;20079;-63
2022/03/16 07:39:07;;;;;;;75.45;45.50;;;;;;;;;;5102388;28;20043;-63
2022/03/16 07:41:33;;;;;;;71.72;46.35;;;;;;;;;;5088044;28;20040;-63
2022/03/16 07:43:59;;;;;;;79.35;48.70;;;;;;;;;;5091309;28;20047;-62
2022/03/16 07:46:25;;;;;;;75.20;46.38;;;;;;;;;;5093537;28;20043;-62
2022/03/16 07:48:52;;;;;;;69.45;45.53;;;;;;;;;;5090172;28;20115;-62
2022/03/16 07:51:18;;;;;;;75.82;44.03;;;;;;;;;;5074342;28;20050;-63
2022/03/16 07:53:44;;;;;;;69.50;45.42;;;;;;;;;;5094883;28;20040;-63
2022/03/16 07:56:10;;;;;;;63.47;44.50;;;;;;;;;;5097968;28;20056;-62
2022/03/16 07:58:38;;;;;;;66.50;44.25;;;;;;;;;;5094416;28;20120;-62
2022/03/16 08:01:04;;;;;;;69.85;44.22;;;;;;;;;;5093910;28;20399;-63
2022/03/16 08:03:31;;;;;;;70.82;45.53;;;;;;;;;;5094699;28;20140;-62
2022/03/16 08:05:57;;;;;;;69.93;47.47;;;;;;;;;;5094730;28;20089;-62
2022/03/16 08:08:24;;;;;;;73.40;48.25;;;;;;;;;;5115028;27;20044;-62
2022/03/16 08:10:50;;;;;;;65.32;44.85;;;;;;;;;;5095022;28;20494;-63
2022/03/16 08:13:16;;;;;;;58.42;41.20;;;;;;;;;;5095959;28;20047;-62
2022/03/16 08:15:43;;;;;;;64.95;43.13;;;;;;;;;;5095023;28;20052;-63
2022/03/16 08:18:09;;;;;;;61.20;41.47;;;;;;;;;;5076412;28;20527;-63
2022/03/16 08:20:35;;;;;;;62.78;40.83;;;;;;;;;;5094331;28;20399;-63
2022/03/16 08:23:01;;;;;;;54.60;36.15;;;;;;;;;;5093444;28;20048;-62
2022/03/16 08:25:27;;;;;;;48.00;32.50;;;;;;;;;;5094876;28;20036;-62
2022/03/16 08:27:53;;;;;;;48.67;31.73;;;;;;;;;;5076539;28;20387;-62
2022/03/16 08:30:20;;;;;;;41.42;30.52;;;;;;;;;;5093863;28;20040;-63
2022/03/16 08:32:46;;;;;;;49.13;30.92;;;;;;;;;;5075866;28;20044;-62
2022/03/16 08:35:12;;;;;;;46.90;31.70;;;;;;;;;;5094082;28;20039;-62
2022/03/16 08:37:39;;;;;;;39.80;29.58;;;;;;;;;;5093164;28;20078;-62
2022/03/16 08:40:07;;;;;;;39.97;27.55;;;;;;;;;;5071900;28;20044;-62
2022/03/16 08:42:33;;;;;;;35.55;24.90;;;;;;;;;;5071518;28;20043;-62
2022/03/16 08:45:01;;;;;;;31.77;24.33;;;;;;;;;;5082064;28;20032;-62
2022/03/16 08:47:27;;;;;;;32.88;23.50;;;;;;;;;;5067452;28;20044;-63
2022/03/16 08:49:55;;;;;;;29.73;21.05;;;;;;;;;;5085393;28;20035;-62
2022/03/16 08:52:21;;;;;;;29.30;20.17;;;;;;;;;;5085251;28;20044;-62
2022/03/16 08:54:47;;;;;;;26.80;20.00;;;;;;;;;;5089223;28;20402;-63
2022/03/16 08:57:14;;;;;;;32.70;20.10;;;;;;;;;;5091130;28;20044;-62
2022/03/16 08:59:41;;;;;;;29.52;19.48;;;;;;;;;;5071247;28;20088;-63
2022/03/16 09:02:07;;;;;;;31.88;20.77;;;;;;;;;;5089688;28;20084;-63
2022/03/16 09:04:34;;;;;;;38.17;21.67;;;;;;;;;;5073712;28;20040;-62
2022/03/16 09:07:02;;;;;;;33.58;20.25;;;;;;;;;;5091862;28;20044;-63
2022/03/16 09:09:29;;;;;;;38.78;23.05;;;;;;;;;;5090476;28;20036;-63
2022/03/16 09:11:56;;;;;;;37.35;22.40;;;;;;;;;;5090402;28;20108;-63
2022/03/16 09:14:22;;;;;;;35.15;22.15;;;;;;;;;;5078244;28;20373;-62
2022/03/16 09:16:48;;;;;;;34.88;21.88;;;;;;;;;;5091453;28;20085;-63
2022/03/16 09:19:16;;;;;;;33.78;21.08;;;;;;;;;;5075567;28;20402;-63
2022/03/16 09:21:44;;;;;;;30.70;19.30;;;;;;;;;;5095617;28;20084;-74
2022/03/16 09:24:11;;;;;;;28.73;19.33;;;;;;;;;;5092569;28;20035;-63
2022/03/16 09:26:37;;;;;;;31.13;20.20;;;;;;;;;;5094208;28;20039;-62
2022/03/16 09:29:03;;;;;;;31.38;21.30;;;;;;;;;;5095059;28;20077;-63
2022/03/16 09:31:29;;;;;;;37.20;22.48;;;;;;;;;;5093112;28;20040;-63
2022/03/16 09:33:56;;;;;;;35.00;21.23;;;;;;;;;;5091538;28;20479;-63
2022/03/16 09:36:22;;;;;;;32.35;21.13;;;;;;;;;;5089742;28;20090;-63
2022/03/16 09:38:50;;;;;;;35.33;23.20;;;;;;;;;;5093587;28;20143;-63
2022/03/16 09:41:16;;;;;;;33.83;23.77;;;;;;;;;;5073299;28;20113;-63
2022/03/16 09:43:44;;;;;;;48.47;24.02;;;;;;;;;;5093362;28;20040;-63
2022/03/16 09:46:11;;;;;;;35.47;22.55;;;;;;;;;;5092752;28;20048;-63
2022/03/16 09:48:39;;;;;;;41.30;24.05;;;;;;;;;;5073580;28;20556;-63
2022/03/16 09:51:06;;;;;;;39.97;22.95;;;;;;;;;;5096996;28;20031;-63
2022/03/16 09:53:33;;;;;;;32.30;21.38;;;;;;;;;;5077524;28;20062;-63
2022/03/16 09:56:00;;;;;;;35.28;21.77;;;;;;;;;;5091286;28;20055;-63
2022/03/16 09:58:26;;;;;;;35.58;23.10;;;;;;;;;;5078625;28;20040;-63
2022/03/16 10:00:53;;;;;;;35.78;22.05;;;;;;;;;;5073312;28;20480;-63
2022/03/16 10:03:21;;;;;;;35.85;20.65;;;;;;;;;;5093005;28;20256;-63
2022/03/16 10:05:48;;;;;;;29.27;18.02;;;;;;;;;;5091208;28;20094;-63
2022/03/16 10:08:25;;;;;;;25.35;17.77;;;;;;;;;;5092278;28;20036;-63
2022/03/16 10:13:54;;;;;;;29.67;16.95;;;;;;;;;;5093409;28;20427;-63
2022/03/16 10:16:20;;;;;;;27.40;16.27;;;;;;;;;;5095046;28;20126;-63
2022/03/16 10:18:53;;;;;;;25.88;15.27;;;;;;;;;;5112925;27;20492;-62
2022/03/16 10:21:19;;;;;;;24.85;15.98;;;;;;;;;;5072465;28;20127;-62
2022/03/16 10:23:46;;;;;;;23.40;15.50;;;;;;;;;;5088194;28;20040;-62
2022/03/16 10:26:16;;;;;;;20.70;13.63;;;;;;;;;;5091319;28;20032;-62
2022/03/16 10:28:45;;;;;;;21.02;13.75;;;;;;;;;;5073722;28;20509;-62
2022/03/16 10:31:14;;;;;;;22.05;11.80;;;;;;;;;;5089224;28;20044;-63
2022/03/16 10:33:43;;;;;;;17.70;11.52;;;;;;;;;;5094234;28;20376;-63
2022/03/16 10:36:11;;;;;;;21.20;12.02;;;;;;;;;;5091290;28;20047;-63
2022/03/16 10:38:44;;;;;;;17.45;11.32;;;;;;;;;;5082928;28;20115;-63
2022/03/16 10:41:11;;;;;;;16.85;10.90;;;;;;;;;;5084085;28;20059;-63
2022/03/16 10:46:34;;;;;;;19.25;12.02;;;;;;;;;;5087419;28;20040;-63
2022/03/16 10:49:03;;;;;;;19.33;11.52;;;;;;;;;;5089339;28;20115;-63
2022/03/16 10:51:30;;;;;;;15.65;11.15;;;;;;;;;;5084196;28;20071;-63
2022/03/16 10:53:58;;;;;;;15.57;10.20;;;;;;;;;;5088232;28;20032;-63
2022/03/16 10:56:24;;;;;;;15.05;9.70;;;;;;;;;;5097950;28;20068;-63
2022/03/16 10:58:52;;;;;;;19.42;9.50;;;;;;;;;;5070640;28;20347;-63
2022/03/16 11:01:20;;;;;;;17.98;10.02;;;;;;;;;;5067844;28;20472;-82
2022/03/16 11:03:47;;;;;;;14.45;9.48;;;;;;;;;;5072607;28;20395;-63
2022/03/16 11:06:14;;;;;;;18.45;10.13;;;;;;;;;;5090197;28;20063;-63
2022/03/16 11:08:41;;;;;;;18.67;10.77;;;;;;;;;;5090612;28;20402;-64
2022/03/16 11:13:55;;;;;;;16.27;10.30;;;;;;;;;;5079590;28;20076;-63
2022/03/16 11:16:22;;;;;;;21.33;11.68;;;;;;;;;;5072005;28;20048;-63
2022/03/16 11:18:48;;;;;;;16.80;10.93;;;;;;;;;;5070966;28;20043;-63
2022/03/16 11:21:21;;;;;;;14.65;10.38;;;;;;;;;;5071719;28;20197;-63
2022/03/16 11:26:51;;;;;;;16.77;10.07;;;;;;;;;;5080573;28;20044;-64
2022/03/16 11:29:17;;;;;;;15.10;10.02;;;;;;;;;;5090536;28;20028;-64
2022/03/16 11:31:44;;;;;;;16.23;9.13;;;;;;;;;;5090179;28;20372;-64
2022/03/16 11:34:11;;;;;;;13.38;8.95;;;;;;;;;;5089723;28;20044;-63
2022/03/16 11:36:40;;;;;;;18.95;9.60;;;;;;;;;;5078884;28;20360;-63
2022/03/16 11:39:14;;;;;;;14.10;8.23;;;;;;;;;;5085792;28;20068;-64
2022/03/16 11:41:47;;;;;;;14.23;8.60;;;;;;;;;;5090371;28;20067;-64
2022/03/16 11:44:29;;;;;;;13.07;8.30;;;;;;;;;;5090108;28;20036;-63
2022/03/16 11:47:16;;;;;;;13.48;8.32;;;;;;;;;;5086241;28;20048;-64
2022/03/16 11:49:45;;;;;;;18.33;9.35;;;;;;;;;;5070256;28;20036;-63
2022/03/16 11:52:12;;;;;;;17.17;9.95;;;;;;;;;;5071841;28;20051;-64
2022/03/16 11:54:40;;;;;;;12.27;8.77;;;;;;;;;;5089345;28;20044;-64
2022/03/16 11:57:07;;;;;;;13.90;9.15;;;;;;;;;;5105285;28;20048;-64
2022/03/16 11:59:33;;;;;;;14.02;9.90;;;;;;;;;;5076968;28;20048;-64
2022/03/16 12:02:09;;;;;;;13.65;9.80;;;;;;;;;;5070743;28;20036;-63
2022/03/16 12:04:38;;;;;;;12.27;9.55;;;;;;;;;;5089862;28;20086;-64
2022/03/16 12:07:09;;;;;;;16.88;9.23;;;;;;;;;;5090163;28;20044;-64
2022/03/16 12:09:39;;;;;;;12.85;8.15;;;;;;;;;;5088834;28;20115;-64
2022/03/16 12:14:59;;;;;;;13.75;9.73;;;;;;;;;;5089765;28;20093;-64
2022/03/16 12:17:25;;;;;;;14.00;8.55;;;;;;;;;;5090112;28;20050;-64
2022/03/16 12:20:10;;;;;;;13.80;10.00;;;;;;;;;;5071319;28;20066;-63
2022/03/16 12:22:47;;;;;;;14.15;10.73;;;;;;;;;;5073687;28;20106;-63
2022/03/16 12:25:27;;;;;;;16.17;10.35;;;;;;;;;;5053321;28;20119;-61
2022/03/16 12:30:39;;;;;;;13.05;9.75;;;;;;;;;;5089076;28;20399;-62
2022/03/16 12:33:05;;;;;;;13.68;9.48;;;;;;;;;;5072434;28;20048;-63
2022/03/16 12:35:34;;;;;;;11.82;9.10;;;;;;;;;;5070623;28;20048;-63
2022/03/16 12:38:01;;;;;;;14.82;9.52;;;;;;;;;;5074159;28;20115;-63
2022/03/16 12:40:29;;;;;;;11.38;8.80;;;;;;;;;;5074667;28;20460;-63
2022/03/16 12:42:56;;;;;;;12.00;8.45;;;;;;;;;;5074070;28;20056;-63
2022/03/16 12:45:25;;;;;;;13.20;9.50;;;;;;;;;;5074763;28;20395;-63
2022/03/16 12:48:01;;;;;;;11.93;8.48;;;;;;;;;;5074699;28;20044;-63
2022/03/16 12:50:28;;;;;;;12.85;8.23;;;;;;;;;;5074013;28;20175;-63
2022/03/16 12:52:55;;;;;;;10.98;8.35;;;;;;;;;;5074802;28;20056;-63
2022/03/16 12:55:21;;;;;;;11.27;8.20;;;;;;;;;;5074558;28;20048;-63
2022/03/16 12:57:52;;;;;;;12.50;8.00;;;;;;;;;;5073734;28;20054;-63
2022/03/16 13:00:18;;;;;;;13.00;8.57;;;;;;;;;;5078933;28;20052;-62
2022/03/16 13:02:44;;;;;;;11.18;8.27;;;;;;;;;;5078553;28;20507;-63
2022/03/16 13:05:11;;;;;;;13.32;8.32;;;;;;;;;;5088600;28;20060;-63
2022/03/16 13:07:38;;;;;;;13.82;8.48;;;;;;;;;;5093019;28;20040;-63
2022/03/16 13:10:06;;;;;;;10.50;7.93;;;;;;;;;;5092937;28;20127;-63
2022/03/16 13:12:32;;;;;;;12.75;8.40;;;;;;;;;;5076822;28;20040;-63
2022/03/16 13:14:58;;;;;;;11.68;7.93;;;;;;;;;;5092505;28;20051;-63
2022/03/16 13:17:25;;;;;;;11.82;8.68;;;;;;;;;;5093002;28;20032;-63
2022/03/16 13:19:55;;;;;;;11.95;8.32;;;;;;;;;;5092043;28;20044;-63
2022/03/16 13:22:22;;;;;;;12.88;9.05;;;;;;;;;;5074848;28;20102;-62
2022/03/16 13:24:55;;;;;;;15.10;9.20;;;;;;;;;;5081490;28;20044;-63
2022/03/16 13:27:24;;;;;;;14.48;8.65;;;;;;;;;;5074093;28;20056;-63
2022/03/16 13:29:53;;;;;;;12.38;8.73;;;;;;;;;;5073950;28;20071;-63
2022/03/16 13:32:20;;;;;;;15.45;9.57;;;;;;;;;;5073115;28;20056;-62
2022/03/16 13:34:49;;;;;;;18.20;9.77;;;;;;;;;;5073728;28;20040;-62
2022/03/16 13:37:24;;;;;;;15.43;10.13;;;;;;;;;;5089333;28;20074;-63
2022/03/16 13:40:07;;;;;;;15.95;9.88;;;;;;;;;;5079451;28;20564;-63
2022/03/16 13:42:35;;;;;;;14.32;9.85;;;;;;;;;;5089171;28;20139;-63
2022/03/16 13:45:15;;;;;;;16.85;10.68;;;;;;;;;;5092640;28;20036;-63
2022/03/16 13:47:43;;;;;;;18.58;10.68;;;;;;;;;;5091363;28;20044;-63
2022/03/16 13:50:18;;;;;;;16.02;10.93;;;;;;;;;;5077172;28;20051;-62
2022/03/16 13:52:44;;;;;;;18.75;11.25;;;;;;;;;;5072623;28;21842;-62
2022/03/16 13:55:12;;;;;;;16.85;11.23;;;;;;;;;;5085341;28;20061;-62
2022/03/16 13:57:41;;;;;;;16.80;11.02;;;;;;;;;;5051825;28;20060;-62
2022/03/16 14:00:09;;;;;;;16.50;11.20;;;;;;;;;;5055907;28;20041;-63
2022/03/16 14:02:36;;;;;;;18.42;11.50;;;;;;;;;;5071828;28;20052;-62
2022/03/16 14:05:05;;;;;;;17.73;11.52;;;;;;;;;;5071234;28;20131;-62
2022/03/16 14:07:33;;;;;;;19.33;12.07;;;;;;;;;;5070910;28;20052;-63
2022/03/16 14:10:00;;;;;;;20.83;11.20;;;;;;;;;;5071710;28;20060;-63
2022/03/16 14:12:31;;;;;;;18.63;12.15;;;;;;;;;;5060803;28;20147;-63
2022/03/16 14:15:06;;;;;;;18.35;12.00;;;;;;;;;;5053973;28;20051;-63
2022/03/16 14:17:41;;;;;;;17.73;12.68;;;;;;;;;;5063713;28;20120;-63
2022/03/16 14:20:09;;;;;;;19.33;13.00;;;;;;;;;;5053002;28;20226;-63
2022/03/16 14:22:35;;;;;;;19.17;12.93;;;;;;;;;;5053381;28;20127;-64
2022/03/16 14:25:11;;;;;;;20.65;13.13;;;;;;;;;;5071455;28;20064;-63
2022/03/16 14:27:38;;;;;;;18.23;11.75;;;;;;;;;;5069956;28;20452;-63
2022/03/16 14:30:04;;;;;;;17.88;13.40;;;;;;;;;;5069433;28;20048;-63
2022/03/16 14:32:30;;;;;;;20.15;12.63;;;;;;;;;;5070283;28;20531;-63
2022/03/16 14:34:56;;;;;;;20.83;12.68;;;;;;;;;;5061074;28;20526;-63